sensor_id;sensor_type;location;lat;lon;timestamp;pressure;altitude;pressure_sealevel;temperature;humidity
71970;BME280;59838;52.152;5.436;2023-04-06T00:00:13;101992.00;;;1.75;76.88
71970;BME280;59838;52.152;5.436;2023-04-06T00:02:40;101987.19;;;1.70;77.11
71970;BME280;59838;52.152;5.436;2023-04-06T00:05:07;101990.94;;;1.64;77.23
71970;BME280;59838;52.152;5.436;2023-04-06T00:07:34;101985.19;;;1.61;77.35
71970;BME280;59838;52.152;5.436;2023-04-06T00:10:00;101981.06;;;1.58;77.70
71970;BME280;59838;52.152;5.436;2023-04-06T00:12:27;101983.72;;;1.57;77.60
71970;BME280;59838;52.152;5.436;2023-04-06T00:14:53;101983.28;;;1.50;77.78
71970;BME280;59838;52.152;5.436;2023-04-06T00:17:20;101984.41;;;1.46;78.19
71970;BME280;59838;52.152;5.436;2023-04-06T00:19:46;101978.34;;;1.47;78.46
71970;BME280;59838;52.152;5.436;2023-04-06T00:22:12;101987.06;;;1.44;78.85
71970;BME280;59838;52.152;5.436;2023-04-06T00:24:39;101977.72;;;1.43;79.52
71970;BME280;59838;52.152;5.436;2023-04-06T00:27:05;101978.84;;;1.39;79.13
71970;BME280;59838;52.152;5.436;2023-04-06T00:29:32;101978.19;;;1.36;79.19
71970;BME280;59838;52.152;5.436;2023-04-06T00:31:58;101969.69;;;1.35;79.50
71970;BME280;59838;52.152;5.436;2023-04-06T00:34:25;101965.88;;;1.28;79.10
71970;BME280;59838;52.152;5.436;2023-04-06T00:36:51;101962.03;;;1.21;78.95
71970;BME280;59838;52.152;5.436;2023-04-06T00:39:17;101965.56;;;1.18;79.27
71970;BME280;59838;52.152;5.436;2023-04-06T00:41:50;101959.09;;;1.13;79.40
71970;BME280;59838;52.152;5.436;2023-04-06T00:44:16;101960.31;;;1.07;79.71
71970;BME280;59838;52.152;5.436;2023-04-06T00:46:43;101952.16;;;1.00;79.86
71970;BME280;59838;52.152;5.436;2023-04-06T00:49:10;101954.91;;;0.97;80.07
71970;BME280;59838;52.152;5.436;2023-04-06T00:51:36;101944.56;;;0.99;80.36
71970;BME280;59838;52.152;5.436;2023-04-06T00:54:03;101940.56;;;0.95;80.68
71970;BME280;59838;52.152;5.436;2023-04-06T00:56:30;101936.44;;;0.92;80.81
71970;BME280;59838;52.152;5.436;2023-04-06T00:58:57;101941.84;;;0.87;80.28
71970;BME280;59838;52.152;5.436;2023-04-06T01:01:24;101941.19;;;0.84;80.31
71970;BME280;59838;52.152;5.436;2023-04-06T01:03:51;101937.84;;;0.83;80.76
71970;BME280;59838;52.152;5.436;2023-04-06T01:06:17;101941.03;;;0.87;81.14
71970;BME280;59838;52.152;5.436;2023-04-06T01:08:44;101926.31;;;0.90;81.55
71970;BME280;59838;52.152;5.436;2023-04-06T01:11:10;101926.22;;;0.92;81.42
71970;BME280;59838;52.152;5.436;2023-04-06T01:13:37;101924.50;;;0.93;81.59
71970;BME280;59838;52.152;5.436;2023-04-06T01:16:03;101920.28;;;0.91;81.42
71970;BME280;59838;52.152;5.436;2023-04-06T01:18:30;101922.84;;;0.91;81.75
71970;BME280;59838;52.152;5.436;2023-04-06T01:20:56;101922.66;;;0.95;81.41
71970;BME280;59838;52.152;5.436;2023-04-06T01:23:24;101918.44;;;0.94;81.63
71970;BME280;59838;52.152;5.436;2023-04-06T01:25:51;101918.25;;;0.97;81.43
71970;BME280;59838;52.152;5.436;2023-04-06T01:28:17;101902.00;;;0.98;82.02
71970;BME280;59838;52.152;5.436;2023-04-06T01:30:43;101904.56;;;0.98;82.07
71970;BME280;59838;52.152;5.436;2023-04-06T01:33:10;101905.28;;;1.00;82.07
71970;BME280;59838;52.152;5.436;2023-04-06T01:35:37;101908.56;;;1.02;82.16
71970;BME280;59838;52.152;5.436;2023-04-06T01:38:03;101900.78;;;1.03;82.52
71970;BME280;59838;52.152;5.436;2023-04-06T01:40:30;101899.09;;;1.04;82.20
71970;BME280;59838;52.152;5.436;2023-04-06T01:42:56;101893.03;;;1.05;83.11
71970;BME280;59838;52.152;5.436;2023-04-06T01:45:23;101888.84;;;1.04;82.55
71970;BME280;59838;52.152;5.436;2023-04-06T01:47:49;101883.91;;;1.01;82.45
71970;BME280;59838;52.152;5.436;2023-04-06T01:50:16;101878.78;;;1.01;82.55
71970;BME280;59838;52.152;5.436;2023-04-06T01:52:42;101880.50;;;1.00;82.43
71970;BME280;59838;52.152;5.436;2023-04-06T01:55:09;101885.53;;;1.02;82.67
71970;BME280;59838;52.152;5.436;2023-04-06T01:57:35;101881.16;;;1.04;82.30
71970;BME280;59838;52.152;5.436;2023-04-06T02:00:02;101877.75;;;1.03;82.60
71970;BME280;59838;52.152;5.436;2023-04-06T02:02:28;101876.13;;;1.02;82.81
71970;BME280;59838;52.152;5.436;2023-04-06T02:04:55;101868.28;;;1.05;83.25
71970;BME280;59838;52.152;5.436;2023-04-06T02:07:22;101867.34;;;1.06;83.44
71970;BME280;59838;52.152;5.436;2023-04-06T02:09:48;101866.34;;;1.09;83.23
71970;BME280;59838;52.152;5.436;2023-04-06T02:12:15;101855.81;;;1.14;82.67
71970;BME280;59838;52.152;5.436;2023-04-06T02:14:41;101857.25;;;1.18;82.61
71970;BME280;59838;52.152;5.436;2023-04-06T02:17:07;101861.19;;;1.23;82.01
71970;BME280;59838;52.152;5.436;2023-04-06T02:19:34;101849.00;;;1.27;82.17
71970;BME280;59838;52.152;5.436;2023-04-06T02:22:00;101848.72;;;1.32;81.73
71970;BME280;59838;52.152;5.436;2023-04-06T02:24:27;101850.06;;;1.37;81.31
71970;BME280;59838;52.152;5.436;2023-04-06T02:26:53;101840.34;;;1.42;81.43
71970;BME280;59838;52.152;5.436;2023-04-06T02:29:20;101841.81;;;1.46;81.05
71970;BME280;59838;52.152;5.436;2023-04-06T02:31:46;101844.88;;;1.52;80.97
71970;BME280;59838;52.152;5.436;2023-04-06T02:34:13;101845.41;;;1.57;81.05
71970;BME280;59838;52.152;5.436;2023-04-06T02:36:45;101837.44;;;1.61;81.09
71970;BME280;59838;52.152;5.436;2023-04-06T02:39:12;101837.03;;;1.68;80.75
71970;BME280;59838;52.152;5.436;2023-04-06T02:41:39;101836.03;;;1.70;80.16
71970;BME280;59838;52.152;5.436;2023-04-06T02:44:07;101832.34;;;1.74;79.94
71970;BME280;59838;52.152;5.436;2023-04-06T02:46:34;101837.97;;;1.79;79.53
71970;BME280;59838;52.152;5.436;2023-04-06T02:49:01;101824.97;;;1.82;79.08
71970;BME280;59838;52.152;5.436;2023-04-06T02:51:27;101820.34;;;1.88;79.02
71970;BME280;59838;52.152;5.436;2023-04-06T02:53:54;101817.69;;;1.89;78.65
71970;BME280;59838;52.152;5.436;2023-04-06T02:56:20;101814.94;;;1.92;78.21
71970;BME280;59838;52.152;5.436;2023-04-06T02:58:47;101814.72;;;1.95;77.74
71970;BME280;59838;52.152;5.436;2023-04-06T03:01:14;101817.81;;;2.00;77.64
71970;BME280;59838;52.152;5.436;2023-04-06T03:03:41;101806.53;;;2.03;77.57
71970;BME280;59838;52.152;5.436;2023-04-06T03:06:08;101806.44;;;2.05;77.46
71970;BME280;59838;52.152;5.436;2023-04-06T03:08:35;101806.22;;;2.08;77.70
71970;BME280;59838;52.152;5.436;2023-04-06T03:11:01;101803.47;;;2.11;77.93
71970;BME280;59838;52.152;5.436;2023-04-06T03:13:28;101799.97;;;2.12;78.08
71970;BME280;59838;52.152;5.436;2023-04-06T03:15:54;101798.13;;;2.14;77.83
71970;BME280;59838;52.152;5.436;2023-04-06T03:18:22;101802.13;;;2.18;77.61
71970;BME280;59838;52.152;5.436;2023-04-06T03:20:49;101799.34;;;2.21;77.57
71970;BME280;59838;52.152;5.436;2023-04-06T03:23:16;101798.25;;;2.25;77.17
71970;BME280;59838;52.152;5.436;2023-04-06T03:25:43;101790.31;;;2.28;76.65
71970;BME280;59838;52.152;5.436;2023-04-06T03:28:09;101797.47;;;2.36;76.53
71970;BME280;59838;52.152;5.436;2023-04-06T03:30:36;101792.84;;;2.41;76.28
71970;BME280;59838;52.152;5.436;2023-04-06T03:33:03;101789.97;;;2.46;76.16
71970;BME280;59838;52.152;5.436;2023-04-06T03:35:30;101795.81;;;2.48;76.19
71970;BME280;59838;52.152;5.436;2023-04-06T03:37:56;101789.06;;;2.47;76.47
71970;BME280;59838;52.152;5.436;2023-04-06T03:40:23;101783.94;;;2.47;76.52
71970;BME280;59838;52.152;5.436;2023-04-06T03:42:50;101779.50;;;2.49;76.35
71970;BME280;59838;52.152;5.436;2023-04-06T03:45:16;101780.22;;;2.51;76.20
71970;BME280;59838;52.152;5.436;2023-04-06T03:47:43;101778.28;;;2.54;76.08
71970;BME280;59838;52.152;5.436;2023-04-06T03:50:10;101773.03;;;2.56;75.77
71970;BME280;59838;52.152;5.436;2023-04-06T03:52:36;101769.53;;;2.57;75.36
71970;BME280;59838;52.152;5.436;2023-04-06T03:55:03;101764.50;;;2.55;75.66
71970;BME280;59838;52.152;5.436;2023-04-06T03:57:29;101765.44;;;2.54;75.99
71970;BME280;59838;52.152;5.436;2023-04-06T03:59:56;101766.47;;;2.52;76.29
71970;BME280;59838;52.152;5.436;2023-04-06T04:02:22;101770.16;;;2.48;76.58
71970;BME280;59838;52.152;5.436;2023-04-06T04:04:49;101770.28;;;2.46;76.79
71970;BME280;59838;52.152;5.436;2023-04-06T04:07:16;101766.91;;;2.46;77.14
71970;BME280;59838;52.152;5.436;2023-04-06T04:09:42;101769.47;;;2.46;76.99
71970;BME280;59838;52.152;5.436;2023-04-06T04:12:08;101764.94;;;2.49;76.71
71970;BME280;59838;52.152;5.436;2023-04-06T04:14:35;101764.72;;;2.52;76.73
71970;BME280;59838;52.152;5.436;2023-04-06T04:17:01;101770.59;;;2.54;76.49
71970;BME280;59838;52.152;5.436;2023-04-06T04:19:27;101768.94;;;2.53;76.54
71970;BME280;59838;52.152;5.436;2023-04-06T04:21:54;101769.75;;;2.54;76.55
71970;BME280;59838;52.152;5.436;2023-04-06T04:24:20;101761.34;;;2.52;76.38
71970;BME280;59838;52.152;5.436;2023-04-06T04:26:47;101767.19;;;2.54;76.22
71970;BME280;59838;52.152;5.436;2023-04-06T04:29:13;101765.44;;;2.54;76.24
71970;BME280;59838;52.152;5.436;2023-04-06T04:31:40;101767.91;;;2.56;75.97
71970;BME280;59838;52.152;5.436;2023-04-06T04:34:06;101767.81;;;2.58;76.20
71970;BME280;59838;52.152;5.436;2023-04-06T04:36:33;101762.78;;;2.56;75.90
71970;BME280;59838;52.152;5.436;2023-04-06T04:38:59;101768.72;;;2.56;75.58
71970;BME280;59838;52.152;5.436;2023-04-06T04:41:27;101766.25;;;2.55;75.63
71970;BME280;59838;52.152;5.436;2023-04-06T04:43:53;101771.41;;;2.55;75.80
71970;BME280;59838;52.152;5.436;2023-04-06T04:46:20;101764.41;;;2.57;75.33
71970;BME280;59838;52.152;5.436;2023-04-06T04:48:46;101767.56;;;2.61;75.31
71970;BME280;59838;52.152;5.436;2023-04-06T04:51:13;101763.88;;;2.65;75.30
71970;BME280;59838;52.152;5.436;2023-04-06T04:53:39;101762.13;;;2.65;75.18
71970;BME280;59838;52.152;5.436;2023-04-06T04:56:06;101769.59;;;2.68;75.17
71970;BME280;59838;52.152;5.436;2023-04-06T04:58:32;101757.38;;;2.72;75.06
71970;BME280;59838;52.152;5.436;2023-04-06T05:00:59;101766.81;;;2.71;75.17
71970;BME280;59838;52.152;5.436;2023-04-06T05:03:26;101758.44;;;2.69;75.71
71970;BME280;59838;52.152;5.436;2023-04-06T05:05:53;101764.38;;;2.70;75.62
71970;BME280;59838;52.152;5.436;2023-04-06T05:08:19;101754.91;;;2.70;75.62
71970;BME280;59838;52.152;5.436;2023-04-06T05:10:47;101760.88;;;2.71;75.71
71970;BME280;59838;52.152;5.436;2023-04-06T05:13:14;101760.47;;;2.77;75.55
71970;BME280;59838;52.152;5.436;2023-04-06T05:15:41;101753.72;;;2.87;75.27
71970;BME280;59838;52.152;5.436;2023-04-06T05:18:07;101753.47;;;3.03;75.14
71970;BME280;59838;52.152;5.436;2023-04-06T05:20:35;101758.19;;;3.21;74.81
71970;BME280;59838;52.152;5.436;2023-04-06T05:23:01;101751.94;;;3.36;74.22
71970;BME280;59838;52.152;5.436;2023-04-06T05:25:28;101753.63;;;3.60;74.22
71970;BME280;59838;52.152;5.436;2023-04-06T05:27:55;101749.13;;;3.86;73.42
71970;BME280;59838;52.152;5.436;2023-04-06T05:30:21;101752.03;;;4.04;72.47
71970;BME280;59838;52.152;5.436;2023-04-06T05:32:48;101750.28;;;3.93;72.12
71970;BME280;59838;52.152;5.436;2023-04-06T05:35:14;101747.81;;;3.80;72.96
71970;BME280;59838;52.152;5.436;2023-04-06T05:37:41;101753.16;;;3.77;73.90
71970;BME280;59838;52.152;5.436;2023-04-06T05:40:08;101748.75;;;3.79;73.35
71970;BME280;59838;52.152;5.436;2023-04-06T05:42:38;101743.97;;;3.86;72.83
71970;BME280;59838;52.152;5.436;2023-04-06T05:45:06;101750.63;;;4.00;72.60
71970;BME280;59838;52.152;5.436;2023-04-06T05:47:32;101739.66;;;4.09;72.43
71970;BME280;59838;52.152;5.436;2023-04-06T05:49:59;101735.91;;;4.25;72.58
71970;BME280;59838;52.152;5.436;2023-04-06T05:52:26;101733.97;;;4.93;72.60
71970;BME280;59838;52.152;5.436;2023-04-06T05:54:52;101731.00;;;5.82;70.82
71970;BME280;59838;52.152;5.436;2023-04-06T05:57:19;101733.31;;;7.15;67.79
71970;BME280;59838;52.152;5.436;2023-04-06T05:59:45;101726.09;;;7.09;65.57
71970;BME280;59838;52.152;5.436;2023-04-06T06:02:11;101727.41;;;6.45;66.46
71970;BME280;59838;52.152;5.436;2023-04-06T06:04:38;101724.06;;;6.03;67.58
71970;BME280;59838;52.152;5.436;2023-04-06T06:07:04;101725.22;;;6.20;68.46
71970;BME280;59838;52.152;5.436;2023-04-06T06:09:31;101719.41;;;6.38;67.32
71970;BME280;59838;52.152;5.436;2023-04-06T06:11:58;101728.75;;;6.19;66.70
71970;BME280;59838;52.152;5.436;2023-04-06T06:14:24;101731.16;;;6.11;67.44
71970;BME280;59838;52.152;5.436;2023-04-06T06:16:51;101726.69;;;6.23;67.79
71970;BME280;59838;52.152;5.436;2023-04-06T06:19:17;101724.06;;;6.54;67.61
71970;BME280;59838;52.152;5.436;2023-04-06T06:21:43;101720.41;;;6.86;66.33
71970;BME280;59838;52.152;5.436;2023-04-06T06:24:10;101722.72;;;6.99;66.20
71970;BME280;59838;52.152;5.436;2023-04-06T06:26:37;101716.72;;;6.78;66.22
71970;BME280;59838;52.152;5.436;2023-04-06T06:29:06;101719.25;;;6.39;66.58
71970;BME280;59838;52.152;5.436;2023-04-06T06:31:33;101722.19;;;6.15;67.56
71970;BME280;59838;52.152;5.436;2023-04-06T06:33:59;101723.63;;;5.98;68.05
71970;BME280;59838;52.152;5.436;2023-04-06T06:36:26;101717.47;;;5.90;68.87
71970;BME280;59838;52.152;5.436;2023-04-06T06:38:52;101725.59;;;5.85;69.42
71970;BME280;59838;52.152;5.436;2023-04-06T06:41:19;101732.63;;;5.83;69.36
71970;BME280;59838;52.152;5.436;2023-04-06T06:43:47;101725.84;;;5.82;69.31
71970;BME280;59838;52.152;5.436;2023-04-06T06:46:14;101718.41;;;5.89;69.73
71970;BME280;59838;52.152;5.436;2023-04-06T06:48:41;101720.13;;;5.99;70.04
71970;BME280;59838;52.152;5.436;2023-04-06T06:51:07;101718.25;;;6.11;70.22
71970;BME280;59838;52.152;5.436;2023-04-06T06:53:35;101717.91;;;6.26;70.04
71970;BME280;59838;52.152;5.436;2023-04-06T06:56:02;101723.91;;;6.46;69.72
71970;BME280;59838;52.152;5.436;2023-04-06T06:58:28;101727.19;;;6.77;69.25
71970;BME280;59838;52.152;5.436;2023-04-06T07:00:56;101719.59;;;7.14;68.28
71970;BME280;59838;52.152;5.436;2023-04-06T07:03:23;101715.66;;;7.95;66.63
71970;BME280;59838;52.152;5.436;2023-04-06T07:05:50;101710.53;;;8.41;63.71
71970;BME280;59838;52.152;5.436;2023-04-06T07:08:21;101712.63;;;8.28;62.52
71970;BME280;59838;52.152;5.436;2023-04-06T07:10:51;101710.25;;;7.88;62.64
71970;BME280;59838;52.152;5.436;2023-04-06T07:13:23;101713.31;;;7.64;63.42
71970;BME280;59838;52.152;5.436;2023-04-06T07:15:50;101711.09;;;7.52;64.64
71970;BME280;59838;52.152;5.436;2023-04-06T07:18:18;101713.38;;;7.45;65.55
71970;BME280;59838;52.152;5.436;2023-04-06T07:20:44;101709.47;;;7.41;66.11
71970;BME280;59838;52.152;5.436;2023-04-06T07:23:11;101708.69;;;7.30;66.55
71970;BME280;59838;52.152;5.436;2023-04-06T07:25:38;101707.19;;;7.18;67.18
71970;BME280;59838;52.152;5.436;2023-04-06T07:28:04;101705.44;;;7.09;67.71
71970;BME280;59838;52.152;5.436;2023-04-06T07:30:31;101708.44;;;7.04;68.09
71970;BME280;59838;52.152;5.436;2023-04-06T07:33:00;101697.69;;;6.99;67.83
71970;BME280;59838;52.152;5.436;2023-04-06T07:35:27;101702.31;;;6.95;68.10
71970;BME280;59838;52.152;5.436;2023-04-06T07:37:54;101705.31;;;6.91;68.75
71970;BME280;59838;52.152;5.436;2023-04-06T07:40:21;101703.53;;;6.91;69.20
71970;BME280;59838;52.152;5.436;2023-04-06T07:42:50;101705.44;;;6.89;68.71
71970;BME280;59838;52.152;5.436;2023-04-06T07:45:16;101706.25;;;6.90;68.27
71970;BME280;59838;52.152;5.436;2023-04-06T07:47:43;101710.34;;;6.92;68.36
71970;BME280;59838;52.152;5.436;2023-04-06T07:50:10;101700.53;;;6.96;67.66
71970;BME280;59838;52.152;5.436;2023-04-06T07:52:36;101705.44;;;6.99;67.67
71970;BME280;59838;52.152;5.436;2023-04-06T07:55:04;101700.41;;;7.07;68.17
71970;BME280;59838;52.152;5.436;2023-04-06T07:57:30;101701.63;;;7.13;67.95
71970;BME280;59838;52.152;5.436;2023-04-06T07:59:57;101703.81;;;7.18;68.53
71970;BME280;59838;52.152;5.436;2023-04-06T08:02:23;101702.28;;;7.25;67.66
71970;BME280;59838;52.152;5.436;2023-04-06T08:04:50;101696.97;;;7.36;67.43
71970;BME280;59838;52.152;5.436;2023-04-06T08:07:16;101704.53;;;7.47;67.20
71970;BME280;59838;52.152;5.436;2023-04-06T08:09:43;101703.31;;;7.52;65.55
71970;BME280;59838;52.152;5.436;2023-04-06T08:12:09;101706.97;;;7.59;65.92
71970;BME280;59838;52.152;5.436;2023-04-06T08:14:36;101710.03;;;7.72;65.40
71970;BME280;59838;52.152;5.436;2023-04-06T08:17:02;101695.47;;;7.81;65.13
71970;BME280;59838;52.152;5.436;2023-04-06T08:19:31;101699.22;;;7.86;64.61
71970;BME280;59838;52.152;5.436;2023-04-06T08:21:58;101698.94;;;7.90;64.63
71970;BME280;59838;52.152;5.436;2023-04-06T08:24:24;101709.56;;;7.86;63.96
71970;BME280;59838;52.152;5.436;2023-04-06T08:26:51;101698.00;;;7.91;63.95
71970;BME280;59838;52.152;5.436;2023-04-06T08:29:18;101705.28;;;8.05;65.15
71970;BME280;59838;52.152;5.436;2023-04-06T08:31:44;101700.19;;;8.13;65.61
71970;BME280;59838;52.152;5.436;2023-04-06T08:34:11;101701.53;;;8.17;65.77
71970;BME280;59838;52.152;5.436;2023-04-06T08:36:40;101690.78;;;8.12;64.47
71970;BME280;59838;52.152;5.436;2023-04-06T08:39:07;101694.47;;;8.10;64.45
71970;BME280;59838;52.152;5.436;2023-04-06T08:41:34;101688.50;;;8.09;64.27
71970;BME280;59838;52.152;5.436;2023-04-06T08:44:01;101689.38;;;8.18;64.70
71970;BME280;59838;52.152;5.436;2023-04-06T08:46:29;101689.94;;;8.21;64.65
71970;BME280;59838;52.152;5.436;2023-04-06T08:48:58;101692.47;;;8.31;65.56
71970;BME280;59838;52.152;5.436;2023-04-06T08:51:26;101688.66;;;8.26;64.63
71970;BME280;59838;52.152;5.436;2023-04-06T08:53:54;101690.38;;;8.35;65.46
71970;BME280;59838;52.152;5.436;2023-04-06T08:56:25;101687.75;;;8.45;65.05
71970;BME280;59838;52.152;5.436;2023-04-06T08:58:54;101686.81;;;8.46;64.71
71970;BME280;59838;52.152;5.436;2023-04-06T09:01:25;101686.34;;;8.50;64.45
71970;BME280;59838;52.152;5.436;2023-04-06T09:03:56;101683.31;;;8.55;64.34
71970;BME280;59838;52.152;5.436;2023-04-06T09:06:24;101691.69;;;8.67;64.98
71970;BME280;59838;52.152;5.436;2023-04-06T09:08:52;101688.56;;;8.81;64.55
71970;BME280;59838;52.152;5.436;2023-04-06T09:11:19;101694.53;;;9.00;65.19
71970;BME280;59838;52.152;5.436;2023-04-06T09:13:50;101689.28;;;9.09;63.69
71970;BME280;59838;52.152;5.436;2023-04-06T09:16:17;101695.94;;;9.12;62.85
71970;BME280;59838;52.152;5.436;2023-04-06T09:18:45;101692.38;;;9.13;62.17
71970;BME280;59838;52.152;5.436;2023-04-06T09:21:12;101690.03;;;9.28;63.00
71970;BME280;59838;52.152;5.436;2023-04-06T09:23:39;101694.84;;;9.49;63.77
71970;BME280;59838;52.152;5.436;2023-04-06T09:26:11;101688.94;;;9.65;62.69
71970;BME280;59838;52.152;5.436;2023-04-06T09:28:57;101687.06;;;9.75;62.79
71970;BME280;59838;52.152;5.436;2023-04-06T09:31:27;101686.22;;;9.75;62.15
71970;BME280;59838;52.152;5.436;2023-04-06T09:33:55;101683.63;;;9.75;63.43
71970;BME280;59838;52.152;5.436;2023-04-06T09:36:36;101693.09;;;9.92;63.37
71970;BME280;59838;52.152;5.436;2023-04-06T09:39:06;101689.56;;;9.93;63.16
71970;BME280;59838;52.152;5.436;2023-04-06T09:41:35;101684.84;;;9.97;62.82
71970;BME280;59838;52.152;5.436;2023-04-06T09:44:09;101688.56;;;9.94;62.83
71970;BME280;59838;52.152;5.436;2023-04-06T09:46:38;101683.72;;;9.99;62.94
71970;BME280;59838;52.152;5.436;2023-04-06T09:49:27;101689.09;;;9.98;62.12
71970;BME280;59838;52.152;5.436;2023-04-06T09:51:56;101690.03;;;9.97;61.97
71970;BME280;59838;52.152;5.436;2023-04-06T09:54:28;101695.88;;;9.99;62.54
71970;BME280;59838;52.152;5.436;2023-04-06T09:57:00;101682.94;;;10.07;61.76
71970;BME280;59838;52.152;5.436;2023-04-06T10:02:45;101689.53;;;10.36;62.02
71970;BME280;59838;52.152;5.436;2023-04-06T10:05:38;101683.53;;;10.52;62.30
71970;BME280;59838;52.152;5.436;2023-04-06T10:08:11;101686.47;;;10.73;63.13
71970;BME280;59838;52.152;5.436;2023-04-06T10:10:38;101681.59;;;10.78;62.94
71970;BME280;59838;52.152;5.436;2023-04-06T10:13:05;101688.25;;;10.65;62.97
71970;BME280;59838;52.152;5.436;2023-04-06T10:15:33;101690.53;;;10.76;64.24
71970;BME280;59838;52.152;5.436;2023-04-06T10:17:59;101686.47;;;10.90;63.91
71970;BME280;59838;52.152;5.436;2023-04-06T10:20:38;101689.88;;;10.98;64.01
71970;BME280;59838;52.152;5.436;2023-04-06T10:23:11;101688.41;;;11.04;64.64
71970;BME280;59838;52.152;5.436;2023-04-06T10:26:15;101692.16;;;11.02;64.19
71970;BME280;59838;52.152;5.436;2023-04-06T10:28:44;101690.84;;;10.89;64.44
71970;BME280;59838;52.152;5.436;2023-04-06T10:31:12;101690.69;;;10.74;66.25
71970;BME280;59838;52.152;5.436;2023-04-06T10:33:38;101686.63;;;10.80;66.74
71970;BME280;59838;52.152;5.436;2023-04-06T10:36:12;101685.81;;;10.79;67.35
71970;BME280;59838;52.152;5.436;2023-04-06T10:38:41;101692.31;;;10.67;67.20
71970;BME280;59838;52.152;5.436;2023-04-06T10:41:10;101686.63;;;10.64;67.71
71970;BME280;59838;52.152;5.436;2023-04-06T10:43:38;101683.88;;;10.57;69.79
71970;BME280;59838;52.152;5.436;2023-04-06T10:46:07;101688.56;;;10.53;71.06
71970;BME280;59838;52.152;5.436;2023-04-06T10:48:42;101684.00;;;10.39;70.76
71970;BME280;59838;52.152;5.436;2023-04-06T10:51:11;101686.41;;;10.24;72.37
71970;BME280;59838;52.152;5.436;2023-04-06T10:53:37;101682.78;;;10.09;73.68
71970;BME280;59838;52.152;5.436;2023-04-06T10:56:09;101679.66;;;9.97;74.20
71970;BME280;59838;52.152;5.436;2023-04-06T10:58:37;101683.69;;;9.91;75.77
71970;BME280;59838;52.152;5.436;2023-04-06T11:01:04;101680.09;;;9.84;76.52
71970;BME280;59838;52.152;5.436;2023-04-06T11:03:31;101683.13;;;9.71;77.08
71970;BME280;59838;52.152;5.436;2023-04-06T11:05:58;101676.53;;;9.50;77.21
71970;BME280;59838;52.152;5.436;2023-04-06T11:08:26;101683.16;;;9.45;77.83
71970;BME280;59838;52.152;5.436;2023-04-06T11:11:14;101672.66;;;9.46;78.63
71970;BME280;59838;52.152;5.436;2023-04-06T11:14:00;101672.66;;;9.46;79.70
71970;BME280;59838;52.152;5.436;2023-04-06T11:16:31;101683.94;;;9.37;80.28
71970;BME280;59838;52.152;5.436;2023-04-06T11:19:03;101676.31;;;9.36;80.20
71970;BME280;59838;52.152;5.436;2023-04-06T11:21:38;101667.72;;;9.35;81.33
71970;BME280;59838;52.152;5.436;2023-04-06T11:24:07;101673.34;;;9.30;83.17
71970;BME280;59838;52.152;5.436;2023-04-06T11:26:44;101678.75;;;9.37;84.33
71970;BME280;59838;52.152;5.436;2023-04-06T11:29:12;101658.81;;;9.38;83.98
71970;BME280;59838;52.152;5.436;2023-04-06T11:31:45;101658.00;;;9.37;83.55
71970;BME280;59838;52.152;5.436;2023-04-06T11:34:13;101657.34;;;9.35;84.66
71970;BME280;59838;52.152;5.436;2023-04-06T11:36:42;101664.66;;;9.40;84.34
71970;BME280;59838;52.152;5.436;2023-04-06T11:39:10;101664.38;;;9.43;85.15
71970;BME280;59838;52.152;5.436;2023-04-06T11:41:36;101651.91;;;9.46;85.05
71970;BME280;59838;52.152;5.436;2023-04-06T11:44:03;101655.22;;;9.30;84.38
71970;BME280;59838;52.152;5.436;2023-04-06T11:46:29;101648.91;;;9.33;83.21
71970;BME280;59838;52.152;5.436;2023-04-06T11:49:00;101644.78;;;9.22;84.56
71970;BME280;59838;52.152;5.436;2023-04-06T11:51:27;101653.41;;;9.31;85.50
71970;BME280;59838;52.152;5.436;2023-04-06T11:53:54;101642.44;;;9.37;85.43
71970;BME280;59838;52.152;5.436;2023-04-06T11:56:25;101645.38;;;9.42;85.81
71970;BME280;59838;52.152;5.436;2023-04-06T11:58:54;101640.34;;;9.41;84.75
71970;BME280;59838;52.152;5.436;2023-04-06T12:01:21;101633.84;;;9.37;85.02
71970;BME280;59838;52.152;5.436;2023-04-06T12:03:48;101635.00;;;9.42;85.79
71970;BME280;59838;52.152;5.436;2023-04-06T12:06:16;101637.28;;;9.45;85.52
71970;BME280;59838;52.152;5.436;2023-04-06T12:08:43;101632.59;;;9.49;85.97
71970;BME280;59838;52.152;5.436;2023-04-06T12:11:13;101639.00;;;9.63;86.08
71970;BME280;59838;52.152;5.436;2023-04-06T12:13:40;101632.34;;;9.68;85.00
71970;BME280;59838;52.152;5.436;2023-04-06T12:16:07;101630.44;;;9.70;85.68
71970;BME280;59838;52.152;5.436;2023-04-06T12:18:34;101630.94;;;9.82;85.69
71970;BME280;59838;52.152;5.436;2023-04-06T12:21:00;101625.56;;;9.76;85.20
71970;BME280;59838;52.152;5.436;2023-04-06T12:23:26;101631.38;;;9.69;85.18
71970;BME280;59838;52.152;5.436;2023-04-06T12:25:53;101621.47;;;9.65;85.70
71970;BME280;59838;52.152;5.436;2023-04-06T12:28:20;101618.69;;;9.58;84.64
71970;BME280;59838;52.152;5.436;2023-04-06T12:30:50;101617.72;;;9.51;85.20
71970;BME280;59838;52.152;5.436;2023-04-06T12:33:16;101624.00;;;9.48;85.91
71970;BME280;59838;52.152;5.436;2023-04-06T12:35:43;101619.63;;;9.49;85.40
71970;BME280;59838;52.152;5.436;2023-04-06T12:38:09;101623.50;;;9.45;85.89
71970;BME280;59838;52.152;5.436;2023-04-06T12:40:37;101618.63;;;9.42;86.83
71970;BME280;59838;52.152;5.436;2023-04-06T12:43:04;101623.47;;;9.37;86.33
71970;BME280;59838;52.152;5.436;2023-04-06T12:45:31;101617.81;;;9.33;86.55
71970;BME280;59838;52.152;5.436;2023-04-06T12:47:58;101620.31;;;9.25;86.52
71970;BME280;59838;52.152;5.436;2023-04-06T12:50:24;101604.06;;;9.14;87.23
71970;BME280;59838;52.152;5.436;2023-04-06T12:52:51;101601.97;;;9.18;87.89
71970;BME280;59838;52.152;5.436;2023-04-06T12:55:18;101605.03;;;9.13;88.36
71970;BME280;59838;52.152;5.436;2023-04-06T12:57:44;101606.50;;;9.16;89.16
71970;BME280;59838;52.152;5.436;2023-04-06T13:00:12;101598.38;;;9.11;89.12
71970;BME280;59838;52.152;5.436;2023-04-06T13:02:40;101597.25;;;9.13;89.32
71970;BME280;59838;52.152;5.436;2023-04-06T13:05:13;101604.84;;;9.07;88.70